Time;durP1;ratioP1;P1;durP2;ratioP2;P2;SDS_P1;SDS_P2;PMS_P1;PMS_P2;Temp;Humidity;BMP_temperature;BMP_pressure;BME280_temperature;BME280_humidity;BME280_pressure;Samples;Min_cycle;Max_cycle;Signal;HPM_P1;HPM_P2
2023/04/09 00:01:02;;;;;;;29.50;21.27;;;8.80;92.10;;;;;;5011351;28;20467;-69
2023/04/09 00:03:28;;;;;;;28.92;20.50;;;8.70;92.40;;;;;;5033625;28;20026;-69
2023/04/09 00:05:54;;;;;;;27.77;20.05;;;8.60;92.30;;;;;;5026494;28;20060;-69
2023/04/09 00:08:19;;;;;;;27.58;19.70;;;8.70;92.30;;;;;;5034043;28;20103;-69
2023/04/09 00:10:45;;;;;;;28.13;20.30;;;8.60;92.30;;;;;;5018392;28;20505;-69
2023/04/09 00:13:10;;;;;;;28.63;20.80;;;8.60;92.40;;;;;;5034480;28;20090;-68
2023/04/09 00:15:36;;;;;;;29.05;20.88;;;8.50;92.40;;;;;;5025411;28;20116;-68
2023/04/09 00:18:02;;;;;;;31.67;22.05;;;8.50;92.50;;;;;;5025204;28;20041;-68
2023/04/09 00:20:27;;;;;;;39.22;28.15;;;8.50;92.60;;;;;;5037481;28;20037;-68
2023/04/09 00:22:54;;;;;;;42.67;29.17;;;8.50;92.90;;;;;;5043266;28;20381;-68
2023/04/09 00:25:20;;;;;;;36.80;26.02;;;8.50;92.60;;;;;;5035897;28;20420;-68
2023/04/09 00:27:45;;;;;;;37.03;24.48;;;8.50;92.60;;;;;;5028495;28;20088;-68
2023/04/09 00:30:11;;;;;;;35.60;24.63;;;8.40;92.70;;;;;;5032491;28;20078;-68
2023/04/09 00:32:37;;;;;;;32.92;24.60;;;8.40;92.80;;;;;;5014526;28;20038;-68
2023/04/09 00:35:03;;;;;;;37.85;25.88;;;8.40;92.90;;;;;;5030268;28;20026;-69
2023/04/09 00:37:28;;;;;;;33.53;24.20;;;8.30;92.90;;;;;;5017015;28;20181;-69
2023/04/09 00:39:54;;;;;;;34.95;24.27;;;8.30;92.90;;;;;;5019480;28;20622;-69
2023/04/09 00:42:22;;;;;;;32.70;23.40;;;8.30;92.90;;;;;;5014506;28;20481;-69
2023/04/09 00:44:48;;;;;;;35.28;24.90;;;8.30;92.90;;;;;;5015095;28;20017;-68
2023/04/09 00:47:14;;;;;;;36.08;24.63;;;8.30;92.90;;;;;;5011836;28;20026;-69
2023/04/09 00:49:40;;;;;;;35.05;24.60;;;8.30;93.10;;;;;;5012919;28;20025;-68
2023/04/09 00:52:06;;;;;;;35.22;25.05;;;8.30;93.20;;;;;;5011565;28;20044;-68
2023/04/09 00:54:32;;;;;;;36.08;24.58;;;8.20;93.20;;;;;;5029918;28;20022;-69
2023/04/09 00:56:58;;;;;;;32.22;23.30;;;8.20;93.30;;;;;;5010481;28;20037;-69
2023/04/09 00:59:25;;;;;;;38.25;25.52;;;8.20;93.40;;;;;;5023420;28;20041;-69
2023/04/09 01:01:50;;;;;;;33.40;23.92;;;8.20;93.40;;;;;;5014105;28;20079;-69
2023/04/09 01:04:16;;;;;;;37.90;25.52;;;8.20;93.50;;;;;;5024286;28;20435;-69
2023/04/09 01:07:14;;;;;;;33.05;23.63;;;8.20;93.50;;;;;;5015754;28;20029;-69
2023/04/09 01:09:53;;;;;;;36.28;24.52;;;8.20;93.50;;;;;;5036775;28;20042;-69
2023/04/09 01:12:21;;;;;;;36.78;24.77;;;8.20;93.60;;;;;;5018494;28;20461;-69
2023/04/09 01:15:07;;;;;;;35.30;24.10;;;8.10;93.60;;;;;;5035160;28;20028;-69
2023/04/09 01:17:39;;;;;;;33.75;23.60;;;8.10;93.80;;;;;;5029615;28;20052;-69
2023/04/09 01:20:19;;;;;;;33.22;23.63;;;8.10;94.00;;;;;;5011031;28;20566;-69
2023/04/09 01:23:09;;;;;;;31.02;21.85;;;8.10;93.80;;;;;;5040759;28;20047;-69
2023/04/09 01:25:59;;;;;;;33.97;23.00;;;8.00;93.80;;;;;;5017120;28;20477;-69
2023/04/09 01:28:34;;;;;;;34.03;21.60;;;8.00;93.90;;;;;;5013184;28;20034;-69
2023/04/09 01:31:05;;;;;;;31.25;23.63;;;8.00;93.90;;;;;;5025999;28;20025;-69
2023/04/09 01:33:36;;;;;;;32.65;20.83;;;8.00;93.90;;;;;;5044059;28;20388;-68
2023/04/09 01:36:03;;;;;;;30.73;23.02;;;8.00;93.90;;;;;;5023686;28;20026;-69
2023/04/09 01:38:29;;;;;;;30.83;22.05;;;8.00;93.80;;;;;;5038709;28;20139;-69
2023/04/09 01:40:56;;;;;;;30.17;21.60;;;8.00;93.80;;;;;;5022382;28;20026;-69
2023/04/09 01:43:24;;;;;;;32.33;21.45;;;7.90;93.90;;;;;;5019089;28;20025;-68
2023/04/09 01:45:50;;;;;;;30.50;21.60;;;7.90;94.00;;;;;;5039250;28;20120;-68
2023/04/09 01:48:16;;;;;;;30.30;21.23;;;7.90;94.10;;;;;;5035129;28;20465;-69
2023/04/09 01:50:42;;;;;;;30.83;21.58;;;7.90;94.20;;;;;;5020367;28;20076;-68
2023/04/09 01:53:08;;;;;;;32.70;21.98;;;7.90;94.10;;;;;;5014130;28;20030;-69
2023/04/09 01:55:34;;;;;;;33.08;23.17;;;7.80;94.10;;;;;;5033099;28;20362;-69
2023/04/09 01:57:59;;;;;;;30.35;22.30;;;7.90;94.20;;;;;;5015334;28;20080;-69
2023/04/09 02:00:37;;;;;;;30.40;22.20;;;7.80;94.20;;;;;;5015168;28;20046;-69
2023/04/09 02:03:12;;;;;;;28.52;21.17;;;7.80;94.20;;;;;;5013210;28;20125;-69
2023/04/09 02:05:42;;;;;;;;;;;7.80;94.30;;;;;;5013959;28;20018;-69
2023/04/09 02:08:11;;;;;;;28.23;19.98;;;7.80;94.10;;;;;;5014981;28;20429;-69
2023/04/09 02:10:39;;;;;;;30.98;21.10;;;7.80;94.20;;;;;;5026379;28;20030;-69
2023/04/09 02:13:08;;;;;;;32.17;22.33;;;7.80;94.20;;;;;;5018530;28;20049;-69
2023/04/09 02:15:37;;;;;;;29.38;20.40;;;7.80;94.30;;;;;;5017426;28;20029;-68
2023/04/09 02:18:03;;;;;;;34.03;21.23;;;7.80;94.40;;;;;;5015726;28;20432;-68
2023/04/09 02:20:29;;;;;;;31.85;22.65;;;7.80;94.40;;;;;;5018896;28;20030;-69
2023/04/09 02:22:54;;;;;;;30.30;21.95;;;7.70;94.40;;;;;;5013642;28;20038;-69
2023/04/09 02:25:23;;;;;;;33.13;21.52;;;7.80;94.50;;;;;;5023050;28;20029;-69
2023/04/09 02:27:49;;;;;;;28.88;22.00;;;7.80;94.50;;;;;;5028076;28;20057;-68
2023/04/09 02:30:14;;;;;;;30.20;20.98;;;7.70;94.50;;;;;;5018569;28;20072;-69
2023/04/09 02:32:40;;;;;;;32.90;23.08;;;7.70;94.50;;;;;;5014280;28;20049;-68
2023/04/09 02:35:06;;;;;;;30.05;21.23;;;7.80;94.60;;;;;;5027277;28;20025;-68
2023/04/09 02:37:32;;;;;;;34.13;22.58;;;7.80;94.60;;;;;;5015604;28;20037;-69
2023/04/09 02:39:57;;;;;;;30.48;22.73;;;7.80;94.60;;;;;;5014767;28;20029;-68
2023/04/09 02:42:23;;;;;;;31.35;21.58;;;7.70;94.70;;;;;;5018094;28;20048;-68
2023/04/09 02:44:48;;;;;;;28.00;19.92;;;7.80;94.70;;;;;;5017228;28;20060;-69
2023/04/09 02:47:14;;;;;;;31.85;22.80;;;7.80;94.80;;;;;;5042773;28;20025;-69
2023/04/09 02:49:39;;;;;;;32.90;23.00;;;7.70;94.80;;;;;;5013497;28;20037;-68
2023/04/09 02:52:05;;;;;;;33.10;23.17;;;7.70;94.80;;;;;;5026529;28;20049;-69
2023/04/09 02:54:31;;;;;;;31.70;21.95;;;7.70;94.70;;;;;;5011270;28;20087;-69
2023/04/09 02:56:56;;;;;;;33.08;21.83;;;7.70;94.70;;;;;;5043480;28;20103;-69
2023/04/09 02:59:22;;;;;;;29.48;20.88;;;7.60;94.70;;;;;;5027608;28;20035;-68
2023/04/09 03:01:47;;;;;;;32.97;22.80;;;7.60;94.80;;;;;;5015198;28;20473;-68
2023/04/09 03:04:13;;;;;;;32.63;23.08;;;7.60;94.90;;;;;;5027230;28;20457;-69
2023/04/09 03:06:39;;;;;;;34.72;22.60;;;7.60;95.00;;;;;;5024714;28;20029;-69
2023/04/09 03:09:04;;;;;;;31.65;22.67;;;7.60;95.00;;;;;;5015218;28;20410;-68
2023/04/09 03:11:30;;;;;;;33.60;22.42;;;7.60;95.00;;;;;;5042844;28;20086;-68
2023/04/09 03:13:55;;;;;;;32.55;21.73;;;7.50;95.00;;;;;;5037556;28;20033;-68
2023/04/09 03:16:23;;;;;;;32.22;23.63;;;7.50;95.10;;;;;;5022916;28;20032;-68
2023/04/09 03:18:49;;;;;;;31.05;22.65;;;7.50;95.20;;;;;;5032859;28;20041;-68
2023/04/09 03:21:15;;;;;;;30.15;21.52;;;7.60;95.20;;;;;;5018795;28;20029;-68
2023/04/09 03:23:40;;;;;;;31.15;23.13;;;7.50;95.20;;;;;;5027452;28;20039;-69
2023/04/09 03:26:06;;;;;;;32.67;22.27;;;7.50;95.20;;;;;;5037594;28;20025;-69
2023/04/09 03:28:32;;;;;;;33.50;22.67;;;7.50;95.20;;;;;;5032324;28;20026;-68
2023/04/09 03:30:57;;;;;;;31.98;22.30;;;7.50;95.30;;;;;;5012155;28;20498;-68
2023/04/09 03:33:24;;;;;;;30.95;21.48;;;7.50;95.30;;;;;;5024372;28;20041;-69
2023/04/09 03:35:50;;;;;;;33.72;21.17;;;7.50;95.30;;;;;;5031385;28;20054;-68
2023/04/09 03:38:16;;;;;;;29.73;21.45;;;7.50;95.40;;;;;;5012437;28;20080;-68
2023/04/09 03:40:41;;;;;;;31.52;22.52;;;7.40;95.40;;;;;;5015183;28;20153;-68
2023/04/09 03:43:07;;;;;;;32.20;22.63;;;7.50;95.70;;;;;;5019590;28;20034;-68
2023/04/09 03:45:33;;;;;;;32.67;22.42;;;7.40;95.50;;;;;;5023180;28;20033;-70
2023/04/09 03:47:58;;;;;;;34.08;22.95;;;7.40;95.50;;;;;;5028923;28;20026;-69
2023/04/09 03:50:24;;;;;;;33.63;23.35;;;7.40;95.50;;;;;;5015630;28;20061;-69
2023/04/09 03:52:49;;;;;;;37.55;26.60;;;7.40;95.60;;;;;;5032284;28;20492;-69
2023/04/09 03:55:15;;;;;;;35.50;25.38;;;7.40;95.60;;;;;;5021976;28;20021;-69
2023/04/09 03:57:41;;;;;;;37.38;25.02;;;7.30;95.60;;;;;;5024348;28;20022;-69
2023/04/09 04:00:07;;;;;;;36.47;23.98;;;7.30;95.70;;;;;;5026419;28;20042;-69
2023/04/09 04:02:32;;;;;;;35.22;24.17;;;7.20;95.70;;;;;;5029012;28;20053;-69
2023/04/09 04:04:59;;;;;;;36.40;25.83;;;7.20;95.80;;;;;;5038091;28;20030;-69
2023/04/09 04:07:25;;;;;;;37.13;25.25;;;7.20;95.90;;;;;;5022660;28;20120;-69
2023/04/09 04:09:50;;;;;;;35.88;24.60;;;7.00;95.90;;;;;;5022976;28;20505;-70
2023/04/09 04:12:16;;;;;;;38.83;25.00;;;7.00;96.00;;;;;;5021197;28;20029;-70
2023/04/09 04:14:42;;;;;;;39.47;24.33;;;7.00;96.10;;;;;;5018600;28;20096;-70
2023/04/09 04:17:07;;;;;;;36.13;25.05;;;6.90;96.20;;;;;;5019608;28;20500;-70
2023/04/09 04:19:33;;;;;;;35.45;24.05;;;6.90;96.30;;;;;;5028049;28;20037;-70
2023/04/09 04:21:59;;;;;;;38.53;25.65;;;6.90;96.40;;;;;;5011432;28;20036;-69
2023/04/09 04:24:24;;;;;;;35.33;24.02;;;6.80;96.40;;;;;;5015945;28;20478;-70
2023/04/09 04:26:50;;;;;;;34.33;23.63;;;6.70;96.50;;;;;;5024785;28;20041;-70
2023/04/09 04:29:16;;;;;;;37.20;24.13;;;6.60;96.60;;;;;;5014772;28;20397;-70
2023/04/09 04:31:41;;;;;;;36.85;25.52;;;6.60;96.70;;;;;;5020328;28;20104;-70
2023/04/09 04:34:07;;;;;;;34.60;24.63;;;6.40;96.90;;;;;;5044087;28;20068;-69
2023/04/09 04:36:32;;;;;;;35.35;23.63;;;6.40;97.00;;;;;;5048151;28;20469;-70
2023/04/09 04:38:58;;;;;;;28.85;20.33;;;6.30;97.20;;;;;;5028903;28;20057;-70
2023/04/09 04:41:23;;;;;;;31.90;22.60;;;6.20;97.20;;;;;;5024459;28;20025;-70
2023/04/09 04:43:49;;;;;;;41.38;24.48;;;6.20;97.40;;;;;;5017793;28;20481;-70
2023/04/09 04:46:15;;;;;;;45.20;23.80;;;6.00;97.80;;;;;;5036699;28;20068;-70
2023/04/09 04:48:40;;;;;;;54.38;24.88;;;5.90;98.20;;;;;;5024178;28;20041;-70
2023/04/09 04:51:06;;;;;;;48.53;23.40;;;5.90;98.30;;;;;;5038324;28;20043;-70
2023/04/09 04:53:32;;;;;;;50.95;24.10;;;5.80;98.40;;;;;;5028696;28;20504;-70
2023/04/09 04:55:57;;;;;;;46.95;23.30;;;5.70;98.50;;;;;;5029282;28;20028;-70
2023/04/09 04:58:24;;;;;;;52.53;25.17;;;5.80;98.60;;;;;;5038323;28;20428;-70
2023/04/09 05:00:50;;;;;;;58.08;25.92;;;5.80;98.80;;;;;;5032179;28;20339;-70
2023/04/09 05:03:15;;;;;;;41.83;23.40;;;5.80;99.00;;;;;;5037571;28;20437;-70
2023/04/09 05:05:41;;;;;;;49.45;24.00;;;5.80;99.10;;;;;;5025173;28;20025;-70
2023/04/09 05:08:07;;;;;;;74.07;24.35;;;5.80;99.30;;;;;;5016002;28;20033;-70
2023/04/09 05:10:32;;;;;;;73.72;27.05;;;5.90;99.50;;;;;;5041835;28;20029;-70
2023/04/09 05:12:58;;;;;;;61.83;22.77;;;5.90;99.60;;;;;;5044370;28;20056;-69
2023/04/09 05:15:24;;;;;;;38.67;22.10;;;5.90;99.80;;;;;;5028781;28;20061;-69
2023/04/09 05:17:49;;;;;;;49.53;25.38;;;5.90;99.90;;;;;;5021517;28;20083;-70
2023/04/09 05:20:15;;;;;;;67.57;23.40;;;6.00;99.90;;;;;;5016345;28;20029;-70
2023/04/09 05:22:41;;;;;;;48.45;23.77;;;6.00;99.90;;;;;;5028137;28;20053;-70
2023/04/09 05:25:07;;;;;;;51.00;21.23;;;6.10;99.90;;;;;;5016705;28;20022;-70
2023/04/09 05:27:32;;;;;;;34.00;22.15;;;6.20;99.90;;;;;;5015221;28;20555;-70
2023/04/09 05:29:58;;;;;;;36.03;23.35;;;6.20;99.90;;;;;;5014524;28;20296;-70
2023/04/09 05:32:24;;;;;;;36.65;22.75;;;6.40;99.90;;;;;;5033535;28;20029;-69
2023/04/09 05:34:49;;;;;;;35.65;23.42;;;6.50;99.90;;;;;;5017686;28;20596;-68
2023/04/09 05:37:15;;;;;;;34.75;22.02;;;6.50;99.90;;;;;;5034339;28;20064;-68
2023/04/09 05:39:40;;;;;;;36.58;23.33;;;6.60;99.90;;;;;;5014407;28;20034;-68
2023/04/09 05:42:06;;;;;;;37.20;24.40;;;6.70;99.90;;;;;;5031984;28;20139;-68
2023/04/09 05:44:32;;;;;;;46.58;23.58;;;6.80;99.90;;;;;;5014356;28;20033;-68
2023/04/09 05:46:57;;;;;;;41.63;24.27;;;6.90;99.90;;;;;;5025939;28;20033;-69
2023/04/09 05:49:24;;;;;;;61.35;25.48;;;6.90;99.90;;;;;;5014204;28;20117;-68
2023/04/09 05:51:50;;;;;;;36.60;22.75;;;6.90;99.90;;;;;;5014515;28;20543;-67
2023/04/09 05:54:16;;;;;;;36.60;23.42;;;6.90;99.90;;;;;;5013968;28;20446;-68
2023/04/09 05:56:42;;;;;;;44.63;23.85;;;6.90;99.90;;;;;;5024229;28;20100;-67
2023/04/09 05:59:08;;;;;;;41.13;24.23;;;7.00;99.90;;;;;;5031326;28;20392;-68
2023/04/09 06:01:33;;;;;;;42.75;24.42;;;7.00;99.90;;;;;;5019191;28;20025;-69
2023/04/09 06:03:59;;;;;;;38.22;24.73;;;7.00;99.90;;;;;;5023397;28;20061;-69
2023/04/09 06:06:25;;;;;;;36.67;24.77;;;7.10;99.90;;;;;;5048868;28;20112;-69
2023/04/09 06:08:51;;;;;;;39.90;24.52;;;7.20;99.90;;;;;;5033726;28;20504;-69
2023/04/09 06:11:17;;;;;;;38.53;23.13;;;7.30;99.90;;;;;;5033606;28;20049;-69
2023/04/09 06:13:42;;;;;;;35.42;23.17;;;7.40;99.90;;;;;;5031232;28;20053;-69
2023/04/09 06:16:08;;;;;;;35.50;21.95;;;7.40;99.90;;;;;;5034445;28;20021;-69
2023/04/09 06:18:35;;;;;;;36.05;23.73;;;7.50;99.90;;;;;;5025039;28;20548;-68
2023/04/09 06:21:07;;;;;;;36.72;24.63;;;7.60;99.90;;;;;;5013993;28;20025;-68
2023/04/09 06:23:34;;;;;;;35.88;24.38;;;7.70;99.90;;;;;;5023344;28;20079;-69
2023/04/09 06:26:00;;;;;;;39.10;24.42;;;7.80;99.90;;;;;;5018971;28;20033;-69
2023/04/09 06:28:28;;;;;;;39.05;24.65;;;7.80;99.90;;;;;;5022802;28;20030;-69
2023/04/09 06:30:54;;;;;;;41.35;25.73;;;7.80;99.90;;;;;;5018372;28;20521;-69
2023/04/09 06:33:20;;;;;;;39.55;25.80;;;7.80;99.90;;;;;;5030902;28;20058;-69
2023/04/09 06:35:46;;;;;;;37.92;24.88;;;7.90;99.90;;;;;;5027232;28;20029;-70
2023/04/09 06:38:12;;;;;;;39.53;25.10;;;7.90;99.90;;;;;;5029874;28;20038;-69
2023/04/09 06:40:38;;;;;;;37.92;25.92;;;8.00;99.90;;;;;;5030344;28;20021;-69
2023/04/09 06:43:04;;;;;;;39.13;27.17;;;8.10;99.90;;;;;;5038833;28;20069;-69
2023/04/09 06:45:31;;;;;;;41.17;27.13;;;8.10;99.90;;;;;;5031886;28;20479;-69
2023/04/09 06:47:57;;;;;;;39.50;26.08;;;8.20;99.90;;;;;;5030634;28;20065;-70
2023/04/09 06:50:22;;;;;;;40.30;25.90;;;8.20;99.90;;;;;;5013413;28;20069;-69
2023/04/09 06:52:48;;;;;;;38.45;26.33;;;8.30;99.90;;;;;;5013623;28;20604;-69
2023/04/09 06:55:14;;;;;;;38.00;26.30;;;8.40;99.90;;;;;;5019561;28;20037;-69
2023/04/09 06:57:40;;;;;;;38.92;25.83;;;8.50;99.90;;;;;;5032683;28;20049;-69
2023/04/09 07:00:07;;;;;;;41.22;26.85;;;8.50;99.90;;;;;;5015418;28;20403;-69
2023/04/09 07:02:33;;;;;;;42.92;28.40;;;8.60;99.90;;;;;;5013209;28;20044;-70
2023/04/09 07:04:58;;;;;;;38.35;26.83;;;8.70;99.90;;;;;;5015739;28;20029;-71
2023/04/09 07:07:24;;;;;;;44.03;29.75;;;8.90;99.90;;;;;;5012792;28;20018;-70
2023/04/09 07:09:53;;;;;;;37.22;24.70;;;9.00;99.90;;;;;;5031019;28;20488;-70
2023/04/09 07:12:29;;;;;;;38.97;26.67;;;9.00;99.90;;;;;;5032244;28;20041;-70
2023/04/09 07:14:59;;;;;;;37.30;25.45;;;9.00;99.90;;;;;;5015410;28;20030;-71
2023/04/09 07:17:25;;;;;;;38.42;26.73;;;9.10;99.90;;;;;;5012236;28;20034;-70
2023/04/09 07:19:50;;;;;;;38.80;25.73;;;9.10;99.90;;;;;;5013022;28;20048;-70
2023/04/09 07:22:17;;;;;;;39.28;26.38;;;9.20;99.90;;;;;;5032653;28;20034;-71
2023/04/09 07:24:42;;;;;;;38.53;26.52;;;9.20;99.90;;;;;;5016162;28;20026;-69
2023/04/09 07:27:08;;;;;;;41.45;27.30;;;9.30;99.90;;;;;;5011770;28;20037;-69
2023/04/09 07:29:35;;;;;;;35.78;25.23;;;9.30;99.90;;;;;;5029281;28;20499;-68
2023/04/09 07:32:02;;;;;;;32.95;23.85;;;9.30;99.80;;;;;;5028632;28;20033;-68
2023/04/09 07:34:27;;;;;;;37.20;24.38;;;9.30;99.70;;;;;;5038796;28;20044;-69
2023/04/09 07:36:53;;;;;;;36.15;25.90;;;9.30;99.80;;;;;;5011834;28;20508;-69
2023/04/09 07:39:19;;;;;;;36.80;25.70;;;9.40;99.80;;;;;;5015668;28;20108;-69
2023/04/09 07:41:46;;;;;;;34.97;25.02;;;9.50;99.70;;;;;;5012763;28;20041;-69
2023/04/09 07:44:12;;;;;;;34.08;24.20;;;9.50;99.60;;;;;;5027231;28;20423;-69
2023/04/09 07:46:38;;;;;;;34.55;23.70;;;9.50;99.50;;;;;;5011926;28;20029;-69
2023/04/09 07:49:04;;;;;;;35.17;23.55;;;9.50;99.50;;;;;;5018521;28;20040;-70
2023/04/09 07:51:30;;;;;;;32.05;23.25;;;9.50;99.50;;;;;;5012650;28;20024;-70
2023/04/09 07:53:55;;;;;;;32.72;22.08;;;9.60;99.50;;;;;;5011729;28;20543;-71
2023/04/09 07:56:21;;;;;;;33.75;23.13;;;9.70;99.40;;;;;;5025355;28;20104;-70
2023/04/09 07:58:48;;;;;;;32.67;22.30;;;9.80;99.40;;;;;;5013333;28;20080;-70
2023/04/09 08:01:14;;;;;;;31.70;21.50;;;9.90;99.30;;;;;;5011641;28;20046;-70
2023/04/09 08:03:40;;;;;;;32.35;22.15;;;10.00;99.30;;;;;;5023401;28;20091;-70
2023/04/09 08:06:06;;;;;;;33.60;22.48;;;10.10;99.20;;;;;;5021026;28;20034;-70
2023/04/09 08:08:31;;;;;;;30.70;22.63;;;10.10;99.10;;;;;;5013202;28;20473;-70
2023/04/09 08:10:57;;;;;;;34.60;23.40;;;10.20;99.00;;;;;;5012867;28;20542;-70
2023/04/09 08:13:24;;;;;;;32.10;24.02;;;10.30;98.90;;;;;;5027810;28;20099;-71
2023/04/09 08:15:50;;;;;;;32.90;23.30;;;10.30;98.80;;;;;;5012171;28;20054;-70
2023/04/09 08:18:15;;;;;;;34.25;23.38;;;10.40;98.70;;;;;;5025529;28;20113;-70
2023/04/09 08:20:43;;;;;;;33.70;23.85;;;10.40;98.40;;;;;;5012588;28;20026;-71
2023/04/09 08:23:10;;;;;;;34.40;23.20;;;10.40;98.30;;;;;;5009049;28;20485;-71
2023/04/09 08:25:36;;;;;;;32.00;22.52;;;10.30;98.10;;;;;;5016977;28;20037;-70
2023/04/09 08:28:01;;;;;;;35.17;23.85;;;10.30;98.10;;;;;;5018758;28;20030;-70
2023/04/09 08:30:27;;;;;;;35.28;24.38;;;10.20;98.00;;;;;;5011509;28;20022;-70
2023/04/09 08:32:53;;;;;;;33.63;22.17;;;10.20;98.20;;;;;;5016997;28;20421;-71
2023/04/09 08:35:18;;;;;;;33.50;23.85;;;10.20;98.30;;;;;;5022642;28;20022;-71
2023/04/09 08:37:44;;;;;;;29.83;21.67;;;10.20;98.30;;;;;;5027949;28;20021;-70
2023/04/09 08:40:10;;;;;;;33.05;22.50;;;10.30;98.30;;;;;;5028931;28;20037;-71
2023/04/09 08:42:46;;;;;;;33.15;22.38;;;10.40;98.30;;;;;;5015801;28;20041;-70
2023/04/09 08:45:12;;;;;;;33.67;23.80;;;10.40;98.30;;;;;;5015224;28;20470;-71
2023/04/09 08:47:40;;;;;;;34.92;23.25;;;10.50;98.40;;;;;;5028099;28;20397;-70
2023/04/09 08:50:06;;;;;;;33.15;23.35;;;10.60;98.40;;;;;;5026199;28;20409;-70
2023/04/09 08:52:33;;;;;;;32.13;23.13;;;10.70;98.40;;;;;;5023965;28;20025;-71
2023/04/09 08:54:59;;;;;;;32.67;24.65;;;10.90;98.10;;;;;;5024388;28;20029;-70
2023/04/09 08:57:26;;;;;;;33.35;24.60;;;10.90;97.80;;;;;;5016204;28;20473;-71
2023/04/09 08:59:51;;;;;;;35.97;25.58;;;10.90;97.80;;;;;;5032299;28;20050;-70
2023/04/09 09:02:17;;;;;;;37.28;26.10;;;11.00;97.70;;;;;;5014268;28;20033;-69
2023/04/09 09:04:47;;;;;;;33.15;24.52;;;10.90;97.70;;;;;;5027220;28;20021;-70
2023/04/09 09:07:13;;;;;;;35.40;24.90;;;11.00;97.60;;;;;;5012898;28;20032;-71
2023/04/09 09:09:59;;;;;;;30.38;22.75;;;10.80;97.40;;;;;;5025952;28;20112;-70
2023/04/09 09:12:38;;;;;;;34.35;24.17;;;10.90;97.40;;;;;;5015317;28;20052;-70
2023/04/09 09:15:23;;;;;;;36.35;25.15;;;10.80;97.10;;;;;;5023752;28;20109;-70
2023/04/09 09:17:54;;;;;;;33.25;24.40;;;10.80;97.40;;;;;;5014658;28;20029;-71
2023/04/09 09:20:21;;;;;;;37.03;25.90;;;10.80;97.30;;;;;;5029697;28;20052;-68
2023/04/09 09:22:50;;;;;;;35.53;24.17;;;10.80;97.20;;;;;;5048178;28;20025;-69
2023/04/09 09:25:16;;;;;;;36.40;24.80;;;10.70;97.20;;;;;;5027301;28;20443;-71
2023/04/09 09:27:42;;;;;;;35.42;23.77;;;10.70;97.30;;;;;;5029987;28;20026;-72
2023/04/09 09:30:19;;;;;;;38.00;26.38;;;10.70;97.30;;;;;;5013579;28;20176;-69
2023/04/09 09:32:45;;;;;;;37.35;26.45;;;10.70;97.20;;;;;;5035734;28;20080;-70
2023/04/09 09:35:10;;;;;;;39.10;26.63;;;10.60;97.10;;;;;;5019636;28;20057;-70
2023/04/09 09:37:36;;;;;;;35.22;25.33;;;10.60;97.20;;;;;;5017518;28;20022;-71
2023/04/09 09:40:03;;;;;;;37.65;25.90;;;10.60;97.20;;;;;;5016886;28;20095;-73
2023/04/09 09:42:28;;;;;;;33.78;24.33;;;10.70;97.30;;;;;;5012937;28;20034;-74
2023/04/09 09:44:54;;;;;;;33.67;25.38;;;10.70;97.30;;;;;;5016017;28;20465;-74
2023/04/09 09:47:21;;;;;;;33.17;24.05;;;10.80;97.20;;;;;;5025475;28;20037;-73
2023/04/09 09:49:49;;;;;;;34.97;24.90;;;10.90;97.10;;;;;;5019868;28;20022;-71
2023/04/09 09:52:16;;;;;;;33.92;22.75;;;10.90;97.10;;;;;;5031379;28;20029;-70
2023/04/09 09:54:46;;;;;;;36.83;25.75;;;10.90;97.10;;;;;;5019309;28;20033;-72
2023/04/09 09:57:15;;;;;;;31.50;22.20;;;11.00;97.10;;;;;;5026328;28;20030;-72
2023/04/09 09:59:46;;;;;;;33.25;22.60;;;11.10;97.20;;;;;;5022483;28;20199;-72
2023/04/09 10:02:36;;;;;;;33.13;24.83;;;11.10;97.10;;;;;;5031730;28;20025;-71
2023/04/09 10:05:04;;;;;;;33.78;23.52;;;11.20;97.10;;;;;;5017505;28;20018;-73
2023/04/09 10:07:30;;;;;;;30.42;20.83;;;11.30;97.30;;;;;;5032030;28;20037;-72
2023/04/09 10:09:58;;;;;;;32.53;23.52;;;11.40;97.00;;;;;;5015737;28;20022;-70
2023/04/09 10:12:25;;;;;;;34.38;24.80;;;11.30;96.80;;;;;;5018029;28;20041;-72
2023/04/09 10:14:55;;;;;;;31.17;22.20;;;11.40;97.10;;;;;;5014176;28;20037;-73
2023/04/09 10:17:20;;;;;;;30.52;21.45;;;11.40;96.90;;;;;;5030524;28;20034;-73
2023/04/09 10:20:02;;;;;;;33.17;23.45;;;11.40;96.80;;;;;;5040057;28;20500;-74
2023/04/09 10:22:32;;;;;;;30.75;21.60;;;11.50;96.70;;;;;;5036976;28;20100;-72
2023/04/09 10:24:58;;;;;;;29.77;21.40;;;11.40;96.60;;;;;;5013731;28;20121;-74
2023/04/09 10:27:26;;;;;;;32.55;22.08;;;11.30;96.60;;;;;;5053648;28;20119;-72
2023/04/09 10:29:52;;;;;;;30.63;22.13;;;11.30;96.60;;;;;;5012529;28;20037;-73
2023/04/09 10:32:25;;;;;;;30.95;21.27;;;11.30;96.80;;;;;;5037296;28;20021;-72
2023/04/09 10:34:51;;;;;;;35.08;23.38;;;11.40;96.60;;;;;;5022663;28;20073;-72
2023/04/09 10:37:24;;;;;;;30.48;21.85;;;11.30;96.60;;;;;;5018497;28;20030;-72
2023/04/09 10:39:51;;;;;;;30.10;21.50;;;11.30;96.70;;;;;;5015546;28;20034;-72
2023/04/09 10:42:20;;;;;;;27.30;20.52;;;11.30;96.70;;;;;;5023949;28;20029;-73
2023/04/09 10:44:55;;;;;;;29.75;20.83;;;11.30;96.70;;;;;;5021738;28;20037;-72
2023/04/09 10:47:33;;;;;;;32.03;22.15;;;11.30;96.70;;;;;;5018695;28;20109;-72
2023/04/09 10:50:31;;;;;;;30.50;20.00;;;11.30;96.60;;;;;;5022325;28;20029;-72
2023/04/09 10:52:59;;;;;;;27.65;19.70;;;11.30;96.70;;;;;;5013746;28;20052;-72
2023/04/09 10:55:38;;;;;;;32.60;21.67;;;11.40;96.60;;;;;;5022117;28;20109;-73
2023/04/09 10:58:07;;;;;;;29.55;20.25;;;11.30;96.60;;;;;;5016200;28;20036;-73
2023/04/09 11:00:38;;;;;;;28.02;19.30;;;11.30;96.70;;;;;;5016781;28;20046;-71
2023/04/09 11:03:24;;;;;;;27.33;19.73;;;11.30;96.60;;;;;;5013587;28;20037;-71
2023/04/09 11:06:08;;;;;;;27.05;18.50;;;11.30;96.50;;;;;;5022022;28;20112;-71
2023/04/09 11:08:35;;;;;;;28.27;19.90;;;11.30;96.50;;;;;;5022429;28;20242;-71
2023/04/09 11:11:01;;;;;;;24.40;17.35;;;11.40;96.60;;;;;;5032762;28;20038;-71
2023/04/09 11:13:29;;;;;;;23.05;15.77;;;11.50;96.50;;;;;;5022042;28;20048;-72
2023/04/09 11:15:56;;;;;;;23.73;16.83;;;11.60;96.50;;;;;;5016471;28;20022;-72
2023/04/09 11:18:24;;;;;;;27.20;19.75;;;11.70;96.50;;;;;;5016475;28;20109;-72
2023/04/09 11:20:54;;;;;;;24.75;17.63;;;11.60;96.40;;;;;;5012933;28;20056;-72
2023/04/09 11:23:20;;;;;;;27.27;17.95;;;11.60;96.50;;;;;;5024379;28;20481;-72
2023/04/09 11:25:52;;;;;;;26.25;18.48;;;11.70;96.50;;;;;;5012233;28;20026;-72
2023/04/09 11:28:18;;;;;;;29.10;20.05;;;11.70;96.50;;;;;;5015522;28;20064;-72
2023/04/09 11:30:45;;;;;;;27.85;19.27;;;11.70;96.40;;;;;;5017591;28;20579;-71
2023/04/09 11:33:11;;;;;;;27.98;19.30;;;11.70;96.30;;;;;;5033584;28;20036;-72
2023/04/09 11:35:37;;;;;;;25.95;19.15;;;11.70;96.10;;;;;;5010982;28;20117;-72
2023/04/09 11:38:07;;;;;;;25.40;17.95;;;11.60;96.30;;;;;;5020535;28;20361;-72
2023/04/09 11:40:33;;;;;;;25.38;17.98;;;11.70;96.20;;;;;;5018376;28;20056;-72
2023/04/09 11:42:59;;;;;;;27.45;18.75;;;11.70;96.10;;;;;;5025639;28;20064;-70
2023/04/09 11:45:28;;;;;;;23.05;16.75;;;11.70;96.20;;;;;;5018521;28;20096;-70
2023/04/09 11:47:54;;;;;;;26.10;18.80;;;11.80;96.40;;;;;;5020648;28;20116;-70
2023/04/09 11:50:20;;;;;;;27.08;17.77;;;11.90;96.10;;;;;;5012370;28;20116;-70
2023/04/09 11:52:47;;;;;;;23.27;17.63;;;11.90;96.00;;;;;;5013270;28;20033;-70
2023/04/09 11:55:26;;;;;;;23.67;16.77;;;11.90;96.10;;;;;;5033271;28;20028;-71
2023/04/09 11:57:56;;;;;;;25.27;16.63;;;11.90;95.90;;;;;;5016587;28;20138;-70
2023/04/09 12:00:23;;;;;;;23.77;17.10;;;12.10;95.90;;;;;;5010440;28;20033;-71
2023/04/09 12:02:50;;;;;;;23.42;17.02;;;12.10;95.80;;;;;;5013166;28;20033;-70
2023/04/09 12:05:29;;;;;;;23.20;17.17;;;12.10;95.60;;;;;;5023731;28;20029;-71
2023/04/09 12:08:00;;;;;;;22.25;16.55;;;12.20;95.40;;;;;;5017757;28;20151;-70
2023/04/09 12:10:27;;;;;;;22.52;16.05;;;12.20;95.40;;;;;;5028610;28;20461;-70
2023/04/09 12:12:53;;;;;;;20.20;14.55;;;12.20;95.30;;;;;;5010199;28;20048;-70
2023/04/09 12:15:24;;;;;;;26.60;16.52;;;12.30;95.20;;;;;;5018070;28;20026;-71
2023/04/09 12:17:50;;;;;;;21.15;16.27;;;12.30;95.10;;;;;;5022709;28;20588;-70
2023/04/09 12:20:38;;;;;;;25.20;17.02;;;12.30;95.10;;;;;;5022866;28;20057;-70
2023/04/09 12:23:05;;;;;;;24.67;17.70;;;12.30;95.20;;;;;;5017955;28;20036;-72
2023/04/09 12:25:34;;;;;;;23.95;17.02;;;12.30;95.30;;;;;;5026475;28;20350;-76
2023/04/09 12:28:00;;;;;;;22.83;16.23;;;12.40;95.20;;;;;;5015793;28;20177;-70
2023/04/09 12:30:26;;;;;;;25.20;16.75;;;12.40;95.10;;;;;;5036084;28;20048;-70
2023/04/09 12:32:52;;;;;;;22.83;17.17;;;12.40;95.10;;;;;;5016377;28;20176;-73
2023/04/09 12:35:18;;;;;;;25.45;18.17;;;12.40;95.00;;;;;;5035285;28;20033;-70